createdAt,value
2022-07-25T00:01:20.683Z,21.14
2022-07-25T00:03:47.528Z,21.08
2022-07-25T00:06:18.167Z,21.03
2022-07-25T00:08:45.052Z,20.98
2022-07-25T00:11:17.845Z,20.90
2022-07-25T00:13:44.558Z,20.84
2022-07-25T00:16:20.501Z,20.78
2022-07-25T00:18:47.775Z,20.73
2022-07-25T00:21:17.912Z,20.68
2022-07-25T00:23:44.486Z,20.63
2022-07-25T00:26:19.253Z,20.59
2022-07-25T00:28:45.820Z,20.54
2022-07-25T00:31:18.713Z,20.49
2022-07-25T00:33:45.474Z,20.44
2022-07-25T00:36:19.324Z,20.39
2022-07-25T00:38:46.039Z,20.34
2022-07-25T00:41:18.594Z,20.29
2022-07-25T00:43:46.012Z,20.26
2022-07-25T00:46:20.629Z,20.21
2022-07-25T00:48:48.647Z,20.17
2022-07-25T00:51:25.468Z,20.13
2022-07-25T00:53:52.222Z,20.09
2022-07-25T00:56:19.163Z,20.05
2022-07-25T00:58:45.962Z,20.00
2022-07-25T01:01:18.814Z,19.95
2022-07-25T01:03:45.412Z,19.90
2022-07-25T01:06:22.400Z,19.84
2022-07-25T01:08:51.656Z,19.78
2022-07-25T01:11:18.777Z,19.72
2022-07-25T01:13:45.570Z,19.66
2022-07-25T01:16:18.063Z,19.62
2022-07-25T01:18:44.951Z,19.57
2022-07-25T01:21:20.710Z,19.52
2022-07-25T01:23:47.493Z,19.48
2022-07-25T01:26:20.893Z,19.45
2022-07-25T01:28:47.816Z,19.41
2022-07-25T01:31:20.856Z,19.38
2022-07-25T01:33:47.666Z,19.34
2022-07-25T01:36:17.385Z,19.31
2022-07-25T01:38:44.280Z,19.28
2022-07-25T01:41:23.452Z,19.23
2022-07-25T01:43:50.606Z,19.17
2022-07-25T01:46:23.994Z,19.14
2022-07-25T01:48:50.823Z,19.10
2022-07-25T01:51:19.854Z,19.06
2022-07-25T01:53:48.219Z,19.04
2022-07-25T01:56:22.500Z,19.00
2022-07-25T01:58:49.951Z,18.96
2022-07-25T02:01:16.749Z,18.93
2022-07-25T02:03:46.411Z,18.90
2022-07-25T02:06:20.609Z,18.87
2022-07-25T02:08:48.177Z,18.83
2022-07-25T02:11:21.631Z,18.79
2022-07-25T02:13:48.937Z,18.73
2022-07-25T02:16:29.108Z,18.68
2022-07-25T02:18:56.814Z,18.65
2022-07-25T02:21:23.913Z,18.62
2022-07-25T02:23:51.227Z,18.60
2022-07-25T02:26:18.664Z,18.56
2022-07-25T02:28:45.833Z,18.53
2022-07-25T02:31:13.350Z,18.49
2022-07-25T02:33:40.658Z,18.45
2022-07-25T02:36:12.816Z,18.41
2022-07-25T02:38:39.971Z,18.38
2022-07-25T02:43:48.367Z,18.31
2022-07-25T02:46:18.636Z,18.28
2022-07-25T02:48:45.986Z,18.23
2022-07-25T02:51:18.845Z,18.18
2022-07-25T02:53:57.033Z,18.14
2022-07-25T02:56:25.231Z,18.10
2022-07-25T02:58:52.605Z,18.04
2022-07-25T03:01:26.053Z,17.99
2022-07-25T03:03:53.260Z,17.94
2022-07-25T03:06:20.921Z,17.90
2022-07-25T03:08:48.085Z,17.87
2022-07-25T03:11:21.588Z,17.86
2022-07-25T03:13:48.311Z,17.85
2022-07-25T03:19:56.854Z,17.81
2022-07-25T03:22:25.169Z,17.80
2022-07-25T03:24:53.466Z,17.80
2022-07-25T03:27:20.986Z,17.79
2022-07-25T03:29:48.469Z,17.79
2022-07-25T03:32:15.472Z,17.79
2022-07-25T03:34:43.686Z,17.80
2022-07-25T03:37:11.053Z,17.81
2022-07-25T03:39:38.024Z,17.83
2022-07-25T03:42:05.078Z,17.86
2022-07-25T03:44:32.354Z,17.90
2022-07-25T03:46:59.522Z,17.94
2022-07-25T03:49:26.854Z,17.98
2022-07-25T03:51:53.978Z,18.02
2022-07-25T03:54:21.057Z,18.06
2022-07-25T03:56:49.965Z,18.10
2022-07-25T03:59:18.722Z,18.13
2022-07-25T04:01:47.199Z,18.17
2022-07-25T04:04:14.620Z,18.20
2022-07-25T04:06:41.768Z,18.22
2022-07-25T04:09:10.032Z,18.26
2022-07-25T04:11:38.340Z,18.29
2022-07-25T04:14:06.330Z,18.35
2022-07-25T04:16:34.184Z,18.41
2022-07-25T04:19:01.677Z,18.47
2022-07-25T04:21:28.555Z,18.53
2022-07-25T04:23:56.524Z,18.59
2022-07-25T04:26:23.834Z,18.65
2022-07-25T04:28:51.039Z,18.73
2022-07-25T04:31:18.174Z,18.81
2022-07-25T04:33:45.430Z,18.87
2022-07-25T04:36:12.728Z,18.95
2022-07-25T04:38:39.707Z,19.04
2022-07-25T04:41:06.991Z,19.12
2022-07-25T04:43:34.218Z,19.23
2022-07-25T04:46:01.989Z,19.33
2022-07-25T04:48:29.203Z,19.44
2022-07-25T04:50:56.264Z,19.53
2022-07-25T04:53:23.459Z,19.63
2022-07-25T04:55:50.453Z,19.75
2022-07-25T04:58:17.376Z,19.85
2022-07-25T05:00:44.912Z,19.94
2022-07-25T05:03:12.329Z,20.04
2022-07-25T05:05:39.167Z,20.14
2022-07-25T05:08:06.423Z,20.20
2022-07-25T05:10:33.315Z,20.29
2022-07-25T05:13:00.893Z,20.38
2022-07-25T05:15:27.979Z,20.48
2022-07-25T05:17:55.144Z,20.59
2022-07-25T05:20:22.144Z,20.71
2022-07-25T05:22:49.201Z,20.83
2022-07-25T05:25:16.244Z,20.95
2022-07-25T05:27:43.381Z,21.06
2022-07-25T05:30:11.618Z,21.17
2022-07-25T05:32:39.485Z,21.30
2022-07-25T05:35:08.386Z,21.43
2022-07-25T05:37:35.992Z,21.57
2022-07-25T05:40:04.368Z,21.74
2022-07-25T05:42:31.507Z,21.94
2022-07-25T05:44:58.458Z,22.11
2022-07-25T05:47:25.579Z,22.27
2022-07-25T05:49:52.681Z,22.44
2022-07-25T05:52:19.592Z,22.62
2022-07-25T05:54:46.993Z,22.79
2022-07-25T05:57:14.339Z,22.94
2022-07-25T05:59:41.937Z,23.08
2022-07-25T06:02:09.082Z,23.26
2022-07-25T06:04:36.127Z,23.44
2022-07-25T06:07:03.017Z,23.64
2022-07-25T06:09:31.879Z,23.84
2022-07-25T06:12:01.132Z,24.05
2022-07-25T06:14:28.978Z,24.24
2022-07-25T06:16:57.157Z,24.40
2022-07-25T06:19:24.363Z,24.57
2022-07-25T06:21:51.437Z,24.76
2022-07-25T06:24:18.281Z,24.97
2022-07-25T06:26:45.059Z,25.16
2022-07-25T06:29:12.479Z,25.34
2022-07-25T06:31:39.465Z,25.53
2022-07-25T06:34:07.621Z,25.68
2022-07-25T06:36:34.750Z,25.88
2022-07-25T06:39:02.484Z,26.10
2022-07-25T06:41:29.435Z,26.28
2022-07-25T06:43:56.195Z,26.49
2022-07-25T06:46:23.578Z,26.73
2022-07-25T06:48:50.980Z,26.95
2022-07-25T06:51:17.963Z,27.14
2022-07-25T06:53:44.623Z,27.30
2022-07-25T06:56:17.252Z,27.46
2022-07-25T06:58:44.875Z,27.62
2022-07-25T07:01:12.386Z,27.76
2022-07-25T07:03:40.543Z,27.86
2022-07-25T07:06:09.532Z,27.91
2022-07-25T07:08:36.742Z,27.94
2022-07-25T07:11:07.495Z,28.06
2022-07-25T07:13:34.818Z,28.28
2022-07-25T07:16:01.606Z,28.45
2022-07-25T07:18:28.775Z,28.52
2022-07-25T07:20:55.494Z,28.56
2022-07-25T07:23:22.456Z,28.74
2022-07-25T07:25:51.799Z,28.97
2022-07-25T07:28:18.855Z,29.09
2022-07-25T07:31:15.303Z,29.27
2022-07-25T07:33:35.741Z,29.53
2022-07-25T07:36:05.340Z,29.74
2022-07-25T07:38:32.311Z,29.96
2022-07-25T07:40:59.325Z,30.14
2022-07-25T07:43:30.121Z,30.28
2022-07-25T07:46:00.635Z,30.30
2022-07-25T07:48:29.437Z,30.33
2022-07-25T07:50:57.558Z,30.47
2022-07-25T07:53:44.338Z,30.67
2022-07-25T07:56:12.121Z,30.85
2022-07-25T07:58:39.252Z,30.95
2022-07-25T08:01:07.130Z,31.00
2022-07-25T08:03:34.407Z,31.15
2022-07-25T08:06:01.495Z,31.11
2022-07-25T08:08:31.302Z,31.04
2022-07-25T08:10:59.634Z,30.92
2022-07-25T08:13:30.891Z,30.86
2022-07-25T08:16:00.347Z,30.85
2022-07-25T08:18:30.003Z,30.94
2022-07-25T08:20:57.293Z,31.00
2022-07-25T08:23:25.607Z,31.04
2022-07-25T08:25:52.554Z,31.10
2022-07-25T08:28:20.205Z,31.19
2022-07-25T08:30:47.339Z,31.25
2022-07-25T08:33:16.424Z,31.27
2022-07-25T08:35:53.042Z,31.36
2022-07-25T08:38:21.015Z,31.39
2022-07-25T08:40:48.044Z,31.32
2022-07-25T08:43:16.820Z,31.26
2022-07-25T08:45:48.244Z,31.37
2022-07-25T08:48:19.571Z,31.49
2022-07-25T08:50:47.584Z,31.65
2022-07-25T08:53:32.811Z,31.88
2022-07-25T08:56:00.539Z,32.18
2022-07-25T08:58:27.359Z,32.30
2022-07-25T09:00:54.162Z,32.38
2022-07-25T09:03:21.232Z,32.51
2022-07-25T09:05:48.095Z,32.68
2022-07-25T09:08:20.192Z,32.81
2022-07-25T09:10:53.893Z,33.01
2022-07-25T09:13:23.526Z,33.24
2022-07-25T09:15:56.787Z,33.28
2022-07-25T09:18:25.423Z,33.39
2022-07-25T09:20:53.544Z,33.45
2022-07-25T09:23:35.100Z,33.51
2022-07-25T09:26:13.218Z,33.62
2022-07-25T09:28:53.468Z,33.75
2022-07-25T09:31:20.451Z,33.86
2022-07-25T09:33:56.471Z,33.93
2022-07-25T09:36:24.170Z,33.91
2022-07-25T09:39:00.581Z,34.01
2022-07-25T09:41:41.169Z,34.05
2022-07-25T09:44:29.625Z,34.00
2022-07-25T09:47:10.898Z,34.00
2022-07-25T09:49:43.321Z,33.97
2022-07-25T09:52:13.409Z,34.01
2022-07-25T09:54:40.818Z,33.93
2022-07-25T09:57:07.589Z,33.98
2022-07-25T09:59:35.024Z,34.01
2022-07-25T10:02:23.311Z,34.07
2022-07-25T10:05:16.357Z,34.17
2022-07-25T10:07:47.310Z,34.25
2022-07-25T10:10:41.321Z,34.16
2022-07-25T10:13:15.307Z,34.12
2022-07-25T10:15:52.686Z,34.07
2022-07-25T10:18:21.716Z,34.18
2022-07-25T10:20:51.030Z,34.28
2022-07-25T10:23:28.283Z,34.32
2022-07-25T10:26:13.352Z,34.43
2022-07-25T10:28:44.256Z,34.64
2022-07-25T10:31:33.659Z,34.78
2022-07-25T10:34:06.788Z,34.89
2022-07-25T10:36:56.007Z,34.97
2022-07-25T10:39:24.080Z,34.91
2022-07-25T10:41:53.702Z,35.04
2022-07-25T10:44:21.303Z,35.19
2022-07-25T10:46:48.845Z,35.19
2022-07-25T10:49:29.135Z,35.14
2022-07-25T10:52:00.686Z,35.19
2022-07-25T10:54:34.411Z,35.33
2022-07-25T10:57:01.545Z,35.40
2022-07-25T10:59:38.065Z,35.43
2022-07-25T11:02:09.571Z,35.53
2022-07-25T11:04:36.684Z,35.64
2022-07-25T11:07:13.484Z,35.69
2022-07-25T11:09:41.899Z,35.86
2022-07-25T11:12:09.400Z,35.94
2022-07-25T11:14:41.399Z,36.13
2022-07-25T11:17:15.915Z,36.25
2022-07-25T11:19:44.786Z,36.17
2022-07-25T11:22:12.160Z,36.01
2022-07-25T11:24:47.324Z,35.79
2022-07-25T11:27:22.478Z,35.63
2022-07-25T11:29:49.143Z,35.46
2022-07-25T11:32:15.849Z,35.29
2022-07-25T11:34:48.311Z,35.15
2022-07-25T11:37:16.344Z,35.03
2022-07-25T11:39:45.564Z,34.88
2022-07-25T11:42:17.567Z,34.87
2022-07-25T11:44:48.243Z,34.99
2022-07-25T11:47:28.560Z,35.10
2022-07-25T11:49:57.795Z,35.27
2022-07-25T11:52:31.631Z,35.60
2022-07-25T11:54:59.982Z,35.92
2022-07-25T11:57:28.868Z,36.01
2022-07-25T11:59:56.308Z,36.12
2022-07-25T12:02:37.510Z,36.28
2022-07-25T12:05:07.392Z,36.27
2022-07-25T12:07:46.811Z,36.19
2022-07-25T12:10:32.125Z,36.00
2022-07-25T12:13:01.282Z,35.93
2022-07-25T12:15:41.299Z,35.83
2022-07-25T12:18:10.665Z,35.84
2022-07-25T12:20:43.090Z,35.90
2022-07-25T12:23:14.970Z,35.97
2022-07-25T12:25:43.902Z,35.79
2022-07-25T12:28:11.443Z,35.64
2022-07-25T12:30:39.649Z,35.54
2022-07-25T12:33:07.298Z,35.38
2022-07-25T12:35:34.677Z,35.22
2022-07-25T12:38:01.353Z,35.02
2022-07-25T12:40:28.042Z,34.79
2022-07-25T12:42:55.071Z,34.68
2022-07-25T12:45:23.165Z,34.51
2022-07-25T12:47:50.267Z,34.36
2022-07-25T12:50:20.838Z,34.31
2022-07-25T12:52:48.350Z,34.27
2022-07-25T12:55:17.683Z,34.16
2022-07-25T12:57:45.585Z,33.89
2022-07-25T13:00:17.545Z,33.67
2022-07-25T13:02:45.063Z,33.52
2022-07-25T13:05:11.981Z,33.38
2022-07-25T13:07:38.770Z,33.18
2022-07-25T13:10:06.416Z,33.03
2022-07-25T13:12:32.932Z,32.80
2022-07-25T13:15:00.286Z,32.67
2022-07-25T13:17:28.002Z,32.56
2022-07-25T13:19:56.741Z,32.46
2022-07-25T13:22:24.467Z,32.44
2022-07-25T13:24:51.549Z,32.39
2022-07-25T13:27:20.230Z,32.39
2022-07-25T13:29:47.246Z,32.40
2022-07-25T13:32:14.447Z,32.44
2022-07-25T13:34:41.450Z,32.48
2022-07-25T13:37:09.416Z,32.59
2022-07-25T13:39:38.385Z,32.72
2022-07-25T13:42:05.442Z,33.08
2022-07-25T13:44:32.274Z,33.76
2022-07-25T13:46:59.225Z,34.22
2022-07-25T13:49:26.597Z,34.41
2022-07-25T13:51:53.467Z,35.08
2022-07-25T13:54:21.129Z,35.78
2022-07-25T13:56:48.127Z,35.71
2022-07-25T13:59:20.846Z,35.25
2022-07-25T14:01:48.391Z,34.80
2022-07-25T14:04:15.154Z,34.39
2022-07-25T14:06:41.981Z,34.23
2022-07-25T14:09:09.508Z,33.98
2022-07-25T14:11:36.853Z,33.88
2022-07-25T14:14:03.843Z,34.15
2022-07-25T14:16:31.001Z,34.74
2022-07-25T14:18:58.244Z,35.00
2022-07-25T14:21:25.392Z,35.30
2022-07-25T14:23:52.346Z,35.49
2022-07-25T14:26:19.015Z,36.14
2022-07-25T14:28:45.865Z,37.12
2022-07-25T14:31:12.714Z,37.76
2022-07-25T14:33:40.542Z,38.90
2022-07-25T14:36:09.899Z,39.91
2022-07-25T14:38:37.276Z,39.97
2022-07-25T14:41:12.530Z,39.47
2022-07-25T14:43:40.606Z,39.60
2022-07-25T14:46:08.354Z,39.26
2022-07-25T14:48:38.936Z,39.22
2022-07-25T14:51:06.564Z,39.91
2022-07-25T14:53:34.538Z,39.73
2022-07-25T14:56:06.505Z,39.96
2022-07-25T14:58:33.588Z,39.59
2022-07-25T15:01:01.118Z,39.02
2022-07-25T15:03:28.356Z,38.41
2022-07-25T15:05:55.497Z,38.39
2022-07-25T15:08:22.705Z,38.01
2022-07-25T15:10:49.449Z,37.50
2022-07-25T15:13:32.568Z,36.95
2022-07-25T15:16:00.051Z,36.95
2022-07-25T15:18:26.731Z,36.76
2022-07-25T15:20:53.737Z,36.29
2022-07-25T15:23:21.146Z,35.73
2022-07-25T15:26:04.795Z,35.29
2022-07-25T15:28:37.218Z,34.77
2022-07-25T15:31:07.295Z,34.24
2022-07-25T15:33:34.135Z,33.93
2022-07-25T15:36:01.391Z,33.68
2022-07-25T15:38:31.460Z,33.52
2022-07-25T15:40:58.557Z,34.39
2022-07-25T15:43:25.975Z,34.62
2022-07-25T15:45:52.793Z,34.15
2022-07-25T15:48:20.298Z,33.72
2022-07-25T15:50:49.696Z,33.41
2022-07-25T15:53:16.433Z,33.03
2022-07-25T15:55:44.020Z,32.69
2022-07-25T15:58:11.607Z,32.40
2022-07-25T16:00:39.124Z,32.15
2022-07-25T16:03:07.341Z,32.02
2022-07-25T16:05:34.194Z,32.06
2022-07-25T16:08:02.464Z,31.91
2022-07-25T16:10:30.945Z,31.60
2022-07-25T16:12:58.327Z,31.37
2022-07-25T16:15:25.282Z,31.19
2022-07-25T16:17:53.578Z,30.86
2022-07-25T16:20:20.371Z,30.60
2022-07-25T16:22:49.024Z,30.49
2022-07-25T16:25:16.001Z,31.22
2022-07-25T16:27:43.500Z,32.05
2022-07-25T16:30:12.148Z,32.28
2022-07-25T16:32:38.976Z,32.34
2022-07-25T16:35:06.216Z,32.41
2022-07-25T16:37:33.043Z,32.56
2022-07-25T16:39:59.577Z,32.47
2022-07-25T16:42:26.283Z,32.10
2022-07-25T16:44:53.089Z,31.67
2022-07-25T16:47:20.070Z,31.23
2022-07-25T16:49:47.133Z,30.89
2022-07-25T16:52:14.380Z,30.51
2022-07-25T16:54:41.656Z,30.26
2022-07-25T16:57:09.199Z,29.88
2022-07-25T16:59:36.156Z,29.46
2022-07-25T17:02:04.048Z,29.07
2022-07-25T17:04:31.171Z,28.74
2022-07-25T17:06:57.961Z,28.40
2022-07-25T17:09:25.335Z,28.16
2022-07-25T17:11:53.224Z,27.93
2022-07-25T17:14:20.202Z,27.80
2022-07-25T17:16:47.182Z,27.60
2022-07-25T17:19:14.101Z,27.39
2022-07-25T17:21:41.287Z,27.29
2022-07-25T17:24:08.593Z,27.22
2022-07-25T17:26:35.910Z,27.10
2022-07-25T17:29:03.285Z,26.94
2022-07-25T17:31:30.005Z,26.84
2022-07-25T17:33:57.038Z,26.85
2022-07-25T17:36:23.787Z,26.92
2022-07-25T17:38:50.483Z,26.96
2022-07-25T17:41:17.299Z,27.04
2022-07-25T17:43:43.987Z,26.99
2022-07-25T17:46:13.352Z,26.97
2022-07-25T17:48:41.158Z,26.85
2022-07-25T17:51:08.137Z,26.82
2022-07-25T17:53:34.932Z,26.84
2022-07-25T17:56:02.188Z,26.82
2022-07-25T17:58:30.367Z,26.80
2022-07-25T18:01:01.200Z,26.72
2022-07-25T18:03:28.781Z,26.61
2022-07-25T18:05:55.739Z,26.45
2022-07-25T18:08:22.692Z,26.36
2022-07-25T18:10:49.948Z,26.28
2022-07-25T18:13:17.937Z,26.15
2022-07-25T18:15:45.680Z,26.05
2022-07-25T18:18:16.927Z,25.93
2022-07-25T18:20:47.012Z,25.78
2022-07-25T18:23:14.076Z,25.65
2022-07-25T18:25:41.018Z,25.54
2022-07-25T18:28:07.640Z,25.50
2022-07-25T18:30:34.294Z,25.48
2022-07-25T18:33:00.897Z,25.48
2022-07-25T18:35:27.603Z,25.41
2022-07-25T18:37:54.363Z,25.30
2022-07-25T18:40:21.745Z,25.18
2022-07-25T18:42:48.724Z,25.13
2022-07-25T18:45:15.579Z,25.06
2022-07-25T18:47:42.344Z,25.01
2022-07-25T18:50:09.565Z,24.96
2022-07-25T18:52:37.490Z,24.94
2022-07-25T18:55:06.196Z,24.95
2022-07-25T18:57:33.497Z,24.90
2022-07-25T19:00:03.113Z,24.89
2022-07-25T19:02:30.760Z,24.93
2022-07-25T19:04:57.580Z,24.95
2022-07-25T19:07:24.512Z,24.91
2022-07-25T19:09:51.059Z,24.82
2022-07-25T19:12:17.831Z,24.74
2022-07-25T19:14:44.662Z,24.66
2022-07-25T19:17:11.330Z,24.55
2022-07-25T19:19:38.109Z,24.44
2022-07-25T19:22:04.875Z,24.31
2022-07-25T19:24:31.616Z,24.21
2022-07-25T19:26:58.927Z,24.13
2022-07-25T19:29:27.198Z,24.04
2022-07-25T19:31:53.809Z,23.93
2022-07-25T19:34:20.638Z,23.84
2022-07-25T19:36:47.278Z,23.75
2022-07-25T19:39:15.043Z,23.69
2022-07-25T19:41:46.723Z,23.60
2022-07-25T19:44:15.069Z,23.54
2022-07-25T19:46:41.770Z,23.48
2022-07-25T19:49:08.904Z,23.42
2022-07-25T19:51:35.679Z,23.37
2022-07-25T19:54:08.135Z,23.30
2022-07-25T19:56:35.336Z,23.25
2022-07-25T19:59:02.507Z,23.20
2022-07-25T20:01:30.717Z,23.14
2022-07-25T20:03:57.605Z,23.10
2022-07-25T20:06:25.622Z,23.06
2022-07-25T20:08:52.537Z,22.98
2022-07-25T20:11:19.453Z,22.95
2022-07-25T20:13:46.433Z,22.90
2022-07-25T20:16:13.486Z,22.86
2022-07-25T20:18:40.228Z,22.81
2022-07-25T20:21:07.086Z,22.75
2022-07-25T20:23:33.975Z,22.72
2022-07-25T20:26:04.908Z,22.69
2022-07-25T20:28:32.224Z,22.69
2022-07-25T20:30:59.169Z,22.67
2022-07-25T20:33:27.148Z,22.67
2022-07-25T20:35:54.957Z,22.68
2022-07-25T20:38:23.027Z,22.69
2022-07-25T20:40:51.683Z,22.66
2022-07-25T20:43:18.902Z,22.64
2022-07-25T20:45:45.820Z,22.58
2022-07-25T20:48:15.055Z,22.53
2022-07-25T20:50:41.817Z,22.49
2022-07-25T20:53:09.036Z,22.46
2022-07-25T20:55:36.542Z,22.43
2022-07-25T20:58:04.787Z,22.39
2022-07-25T21:00:31.915Z,22.35
2022-07-25T21:03:00.254Z,22.35
2022-07-25T21:05:28.693Z,22.34
2022-07-25T21:07:56.320Z,22.34
2022-07-25T21:10:23.726Z,22.32
2022-07-25T21:12:51.010Z,22.31
2022-07-25T21:15:18.458Z,22.28
2022-07-25T21:17:45.842Z,22.23
2022-07-25T21:20:14.225Z,22.19
2022-07-25T21:22:42.095Z,22.13
2022-07-25T21:25:11.032Z,22.05
2022-07-25T21:27:38.409Z,21.99
2022-07-25T21:30:07.006Z,21.91
2022-07-25T21:32:34.309Z,21.85
2022-07-25T21:35:01.449Z,21.80
2022-07-25T21:37:28.695Z,21.78
2022-07-25T21:39:55.390Z,21.74
2022-07-25T21:42:22.734Z,21.69
2022-07-25T21:44:49.818Z,21.66
2022-07-25T21:47:16.767Z,21.60
2022-07-25T21:50:02.400Z,21.56
2022-07-25T21:52:35.115Z,21.52
2022-07-25T21:55:03.523Z,21.47
2022-07-25T21:57:31.327Z,21.43
2022-07-25T21:59:58.491Z,21.38
2022-07-25T22:02:25.591Z,21.34
2022-07-25T22:04:52.846Z,21.32
2022-07-25T22:07:19.889Z,21.27
2022-07-25T22:09:47.059Z,21.26
2022-07-25T22:12:14.682Z,21.24
2022-07-25T22:14:41.699Z,21.19
2022-07-25T22:17:09.438Z,21.15
2022-07-25T22:19:36.815Z,21.13
2022-07-25T22:22:06.008Z,21.09
2022-07-25T22:24:33.069Z,21.04
2022-07-25T22:27:00.094Z,20.98
2022-07-25T22:29:27.144Z,20.92
2022-07-25T22:31:57.132Z,20.86
2022-07-25T22:34:24.201Z,20.79
2022-07-25T22:36:51.161Z,20.73
2022-07-25T22:39:18.212Z,20.71
2022-07-25T22:41:45.727Z,20.70
2022-07-25T22:44:12.962Z,20.69
2022-07-25T22:46:39.971Z,20.68
2022-07-25T22:49:08.135Z,20.65
2022-07-25T22:51:35.460Z,20.60
2022-07-25T22:54:02.475Z,20.55
2022-07-25T22:56:29.440Z,20.52
2022-07-25T22:58:56.387Z,20.45
2022-07-25T23:01:23.162Z,20.42
2022-07-25T23:03:50.679Z,20.34
2022-07-25T23:06:19.567Z,20.29
2022-07-25T23:08:47.170Z,20.23
2022-07-25T23:11:14.454Z,20.21
2022-07-25T23:13:41.822Z,20.19
2022-07-25T23:16:10.452Z,20.13
2022-07-25T23:18:38.191Z,20.10
2022-07-25T23:21:08.316Z,20.06
2022-07-25T23:23:35.529Z,20.01
2022-07-25T23:26:06.397Z,19.96
2022-07-25T23:28:33.542Z,19.92
2022-07-25T23:31:00.535Z,19.90
2022-07-25T23:33:28.841Z,19.85
2022-07-25T23:35:57.233Z,19.83
2022-07-25T23:38:24.696Z,19.81
2022-07-25T23:40:54.016Z,19.78
2022-07-25T23:43:43.640Z,19.77
2022-07-25T23:46:08.450Z,19.74
2022-07-25T23:48:35.387Z,19.71
2022-07-25T23:51:04.556Z,19.73
2022-07-25T23:53:33.862Z,19.72
2022-07-25T23:56:01.058Z,19.73
2022-07-25T23:58:27.964Z,19.74
